Portada
METAR-TAF:

METAR-TAF

Aeroports :

Derby, Austràlia

latitud: 17-34-53S, longitud: 123-49-42E, altitud: 91 m

Observació

L'informe es va fer fa 27 minuts, a les 11:30 UTC
Vent 4 kt del Nord-Oest
Temperatura 26°C
Humitat 45%
Pressió 1013 hPa
Visibilitat 10 km o més

METAR: YCIN 181130Z AUTO 31004KT 9999 // NCD 26/13 Q1013 RF00.0/000.0

Hora: 19:57 (11:57 UTC)

Pronòstic

L'informe es va fer fa 5 hores i 40 minuts, a les 06:17 UTC
Pronòstic vàlid del 18 a les 08 UTC al 18 a les 20 UTC
Vent 8 kt del Oest/Nord-Oest
Visibilitat 10 km o més
sense núvols per sota de 1500 mi sense presència de cumulonimbus.
A partir de les 18 a les 1400 UTC
Vent 6 kt del Sud-Oest
Visibilitat 10 km o més
sense núvols per sota de 1500 mi sense presència de cumulonimbus.
Probabilitat 30%
l' 18 a les 17 UTC al 18 a les 20 UTC
Visibilitat: 0300 m
Cel ennuvolat a una alçada de 500 ft
boira

TAF: YCIN 180617Z 1808/1820 30008KT CAVOK FM181400 23006KT CAVOK PROB30 1817/1820 0300 FG BKN005

Observacions i pronòstics meteorològics de més de 4000 aeroports (METAR i TAF).

Les estacions disponibles són els punts grocs i vermells al mapa.

Posi el ratolí al punt desitjat per veure el nom de l'estació.

Feu clic per veure les observacions i els pronòstics meteorològics.

Per canviar el mapa: feu clic els botons verds amb una creu de color negre per apropar; al botó verd amb un guió per allunyar la imatge; o en les fletxes verdes per a mapes adjacents.


METAR-TAF: